Accueil
METAR-TAF:

METAR-TAF

Aéroports :

Saint-Martin, Antilles néerlandaises

Aéroport international Princess Juliana

latitude: 18-03N, longitude: 063-07W, altitude: 4 m

Observation

Le bulletin a été fait il y a 51 minutes, à 16:00 UTC
Vent 8 kt de est/nord-est, variant entre nord-est et est/sud-est
Température 31°C
Humidité 71%
Pression 1016 hPa
Visibilité 10 km ou plus
Nuages épars à une hauteur de 2200 ft

METAR: TNCM 221600Z 07008KT 040V110 9999 SCT022 31/25 Q1015 A2999 NOSIG

Heure: 12:51 (16:51 UTC)

Prévision

Le bulletin a été fait il y a 5 heures et 14 minutes, à 11:37 UTC
Prévision valable du 22 à 12 UTC au 23 à 12 UTC
Vent 9 kt de est
Visibilité: 10 km
Quelques nuages à une hauteur de 1900 ft

TAF: TNCM 221137Z 2212/2312 08009KT P6SM FEW019

Observations et prévisions météorologiques de plus de 4000 aéroports (messages METAR et TAF).

Les stations disponibles sont représentées par des disques jaunes et rouges sur la carte.

Passer la souris dessus pour voir le nom de la station.

Cliquer dessus pour voir les observations et prévisions météorologiques.

Pour changer de carte: cliquez sur les boutons verts avec une croix noire pour zoomer, sur le bouton vert avec un tiret pour effectuer un zoom arrière, ou sur les flèches vertes pour les cartes adjacentes.


METAR-TAF: